This is the latest recevied weather packets stored in our database for station/object NUUKSIO. If no packets are shown the sender has not sent any weather packets the latest 10 day(s).
| Time | Temp. | Humidity | Pressure | Rain* | Wind** | Luminosity | Snow |
|---|---|---|---|---|---|---|---|
| 1777987637 | 11.67° C | 41% | 1004.7 hPa | 0 mm | - | - | - |
| 1777986437 | 10° C | 43% | 1004.7 hPa | 0 mm | - | - | - |
| 1777985237 | 11.67° C | 42% | 1004.4 hPa | 0 mm | - | - | - |
| 1777984037 | 11.67° C | 40% | 1004.4 hPa | 0 mm | - | - | - |
| 1777982837 | 12.22° C | 45% | 1004.2 hPa | 0 mm | - | - | - |
| 1777981637 | 9.44° C | 51% | 1004.2 hPa | 0 mm | - | - | - |
| 1777980437 | 12.22° C | 44% | 1003.8 hPa | 0 mm | - | - | - |
| 1777979236 | 10° C | 51% | 1003.7 hPa | 0 mm | - | - | - |
| 1777978036 | 12.22° C | 44% | 1003.3 hPa | 0 mm | - | - | - |
| 1777976836 | 11.67° C | 50% | 1003.1 hPa | 0 mm | - | - | - |
| 1777975637 | 11.67° C | 49% | 1002.6 hPa | 0 mm | - | - | - |
| 1777974436 | 11.11° C | 52% | 1002.4 hPa | 0 mm | - | - | - |
| 1777973236 | 11.67° C | 48% | 1002 hPa | 0 mm | - | - | - |
| 1777972036 | 12.22° C | 56% | 1001.8 hPa | 0 mm | - | - | - |
| 1777970837 | 12.78° C | 52% | 1001.4 hPa | 0 mm | - | - | - |
| 1777969636 | 12.22° C | 56% | 1001.1 hPa | 0 mm | - | - | - |
| 1777968436 | 11.67° C | 59% | 1001.1 hPa | 0 mm | - | - | - |
| 1777967236 | 10° C | 64% | 1001 hPa | 0 mm | - | - | - |
| 1777966036 | 11.11° C | 64% | 1000.8 hPa | 0 mm | - | - | - |
| 1777964836 | 11.11° C | 66% | 1000.6 hPa | 0 mm | - | - | - |
| 1777963636 | 10° C | 66% | 1000.6 hPa | 0 mm | - | - | - |
| 1777962436 | 9.44° C | 73% | 1000.5 hPa | 0 mm | - | - | - |
| 1777961236 | 8.89° C | 78% | 1000.5 hPa | 0 mm | - | - | - |
| 1777960035 | 7.78° C | 85% | 1000.6 hPa | 0 mm | - | - | - |
| 1777958835 | 7.22° C | 90% | 1000.8 hPa | 0 mm | - | - | - |
* Rain latest hour (hover to see other rain measurements)
** Current wind speed in m/s (hover to see current wind gust speed)